sensor_id;sensor_type;location;lat;lon;timestamp;pressure;altitude;pressure_sealevel;temperature;humidity
53719;BME280;39616;48.872;9.390;2023-04-02T00:03:01;97533.78;;;7.90;91.33
53719;BME280;39616;48.872;9.390;2023-04-02T00:08:18;97539.50;;;7.88;91.74
53719;BME280;39616;48.872;9.390;2023-04-02T00:10:55;97538.38;;;7.89;91.39
53719;BME280;39616;48.872;9.390;2023-04-02T00:13:36;97542.78;;;7.85;92.61
53719;BME280;39616;48.872;9.390;2023-04-02T00:16:16;97543.47;;;7.77;93.98
53719;BME280;39616;48.872;9.390;2023-04-02T00:18:51;97552.16;;;7.74;94.64
53719;BME280;39616;48.872;9.390;2023-04-02T00:21:42;97550.84;;;7.71;94.83
53719;BME280;39616;48.872;9.390;2023-04-02T00:24:16;97551.25;;;7.79;93.47
53719;BME280;39616;48.872;9.390;2023-04-02T00:26:52;97554.66;;;7.70;95.69
53719;BME280;39616;48.872;9.390;2023-04-02T00:29:23;97554.22;;;7.63;96.03
53719;BME280;39616;48.872;9.390;2023-04-02T00:31:53;97563.03;;;7.69;94.47
53719;BME280;39616;48.872;9.390;2023-04-02T00:34:35;97556.91;;;7.63;96.04
53719;BME280;39616;48.872;9.390;2023-04-02T00:37:15;97562.00;;;7.65;95.47
53719;BME280;39616;48.872;9.390;2023-04-02T00:39:47;97566.91;;;7.63;94.86
53719;BME280;39616;48.872;9.390;2023-04-02T00:42:18;97563.50;;;7.57;95.52
53719;BME280;39616;48.872;9.390;2023-04-02T00:44:49;97562.59;;;7.62;94.51
53719;BME280;39616;48.872;9.390;2023-04-02T00:47:21;97568.09;;;7.57;95.45
53719;BME280;39616;48.872;9.390;2023-04-02T00:50:00;97559.69;;;7.58;96.85
53719;BME280;39616;48.872;9.390;2023-04-02T00:52:34;97565.97;;;7.54;96.44
53719;BME280;39616;48.872;9.390;2023-04-02T00:55:17;97567.78;;;7.58;93.78
53719;BME280;39616;48.872;9.390;2023-04-02T00:57:51;97566.88;;;7.49;96.76
53719;BME280;39616;48.872;9.390;2023-04-02T01:00:28;97569.25;;;7.50;97.34
53719;BME280;39616;48.872;9.390;2023-04-02T01:05:44;97582.41;;;7.38;99.27
53719;BME280;39616;48.872;9.390;2023-04-02T01:08:20;97577.53;;;7.40;97.76
53719;BME280;39616;48.872;9.390;2023-04-02T01:11:03;97580.22;;;7.40;97.60
53719;BME280;39616;48.872;9.390;2023-04-02T01:16:21;97585.41;;;7.37;99.18
53719;BME280;39616;48.872;9.390;2023-04-02T01:24:47;97589.19;;;7.36;97.58
53719;BME280;39616;48.872;9.390;2023-04-02T01:27:38;97595.31;;;7.41;97.99
53719;BME280;39616;48.872;9.390;2023-04-02T01:30:11;97599.31;;;7.44;95.54
53719;BME280;39616;48.872;9.390;2023-04-02T01:32:44;97591.50;;;7.42;97.76
53719;BME280;39616;48.872;9.390;2023-04-02T01:35:14;97596.41;;;7.40;97.92
53719;BME280;39616;48.872;9.390;2023-04-02T01:38:05;97594.56;;;7.36;98.88
53719;BME280;39616;48.872;9.390;2023-04-02T01:40:46;97600.28;;;7.34;98.21
53719;BME280;39616;48.872;9.390;2023-04-02T01:43:31;97595.16;;;7.33;99.38
53719;BME280;39616;48.872;9.390;2023-04-02T01:46:24;97608.63;;;7.33;99.83
53719;BME280;39616;48.872;9.390;2023-04-02T01:48:56;97599.53;;;7.29;99.87
53719;BME280;39616;48.872;9.390;2023-04-02T01:51:32;97605.94;;;7.33;100.00
53719;BME280;39616;48.872;9.390;2023-04-02T01:54:03;97610.53;;;7.32;98.26
53719;BME280;39616;48.872;9.390;2023-04-02T01:56:35;97614.13;;;7.28;100.00
53719;BME280;39616;48.872;9.390;2023-04-02T01:59:05;97625.22;;;7.26;100.00
53719;BME280;39616;48.872;9.390;2023-04-02T02:01:42;97620.63;;;7.26;100.00
53719;BME280;39616;48.872;9.390;2023-04-02T02:04:14;97622.78;;;7.24;100.00
53719;BME280;39616;48.872;9.390;2023-04-02T02:06:46;97619.88;;;7.21;100.00
53719;BME280;39616;48.872;9.390;2023-04-02T02:09:24;97625.84;;;7.18;100.00
53719;BME280;39616;48.872;9.390;2023-04-02T02:11:57;97623.53;;;7.11;100.00
53719;BME280;39616;48.872;9.390;2023-04-02T02:14:29;97625.66;;;7.14;100.00
53719;BME280;39616;48.872;9.390;2023-04-02T02:17:01;97630.00;;;7.10;100.00
53719;BME280;39616;48.872;9.390;2023-04-02T02:19:44;97629.28;;;7.05;100.00
53719;BME280;39616;48.872;9.390;2023-04-02T02:24:57;97626.56;;;7.05;100.00
53719;BME280;39616;48.872;9.390;2023-04-02T02:27:42;97633.34;;;7.02;100.00
53719;BME280;39616;48.872;9.390;2023-04-02T02:33:29;97643.03;;;7.03;100.00
53719;BME280;39616;48.872;9.390;2023-04-02T02:41:09;97640.94;;;7.00;100.00
53719;BME280;39616;48.872;9.390;2023-04-02T02:44:00;97636.34;;;7.00;100.00
53719;BME280;39616;48.872;9.390;2023-04-02T02:46:36;97643.91;;;6.98;100.00
53719;BME280;39616;48.872;9.390;2023-04-02T02:49:14;97649.81;;;7.00;100.00
53719;BME280;39616;48.872;9.390;2023-04-02T02:51:49;97646.38;;;6.95;100.00
53719;BME280;39616;48.872;9.390;2023-04-02T02:54:21;97650.38;;;6.97;100.00
53719;BME280;39616;48.872;9.390;2023-04-02T02:56:57;97648.50;;;6.98;100.00
53719;BME280;39616;48.872;9.390;2023-04-02T02:59:30;97656.66;;;6.93;100.00
53719;BME280;39616;48.872;9.390;2023-04-02T03:02:01;97659.34;;;6.93;100.00
53719;BME280;39616;48.872;9.390;2023-04-02T03:04:33;97660.16;;;6.93;100.00
53719;BME280;39616;48.872;9.390;2023-04-02T03:07:06;97661.47;;;6.96;100.00
53719;BME280;39616;48.872;9.390;2023-04-02T03:14:45;97661.75;;;6.94;100.00
53719;BME280;39616;48.872;9.390;2023-04-02T03:17:32;97666.00;;;7.00;100.00
53719;BME280;39616;48.872;9.390;2023-04-02T03:20:14;97668.97;;;6.99;100.00
53719;BME280;39616;48.872;9.390;2023-04-02T03:23:05;97665.47;;;6.98;100.00
53719;BME280;39616;48.872;9.390;2023-04-02T03:25:49;97672.69;;;7.03;100.00
53719;BME280;39616;48.872;9.390;2023-04-02T03:28:26;97671.59;;;7.04;100.00
53719;BME280;39616;48.872;9.390;2023-04-02T03:31:15;97680.50;;;7.05;100.00
53719;BME280;39616;48.872;9.390;2023-04-02T03:33:53;97678.91;;;7.04;100.00
53719;BME280;39616;48.872;9.390;2023-04-02T03:36:30;97682.09;;;7.06;100.00
53719;BME280;39616;48.872;9.390;2023-04-02T03:39:15;97680.72;;;7.08;100.00
53719;BME280;39616;48.872;9.390;2023-04-02T03:41:51;97688.50;;;7.10;100.00
53719;BME280;39616;48.872;9.390;2023-04-02T03:44:34;97680.16;;;7.11;100.00
53719;BME280;39616;48.872;9.390;2023-04-02T03:47:14;97688.72;;;7.13;100.00
53719;BME280;39616;48.872;9.390;2023-04-02T03:49:50;97688.16;;;7.16;100.00
53719;BME280;39616;48.872;9.390;2023-04-02T03:52:28;97694.88;;;7.19;100.00
53719;BME280;39616;48.872;9.390;2023-04-02T03:55:00;97701.56;;;7.21;100.00
53719;BME280;39616;48.872;9.390;2023-04-02T03:57:39;97700.19;;;7.24;100.00
53719;BME280;39616;48.872;9.390;2023-04-02T04:00:33;97705.00;;;7.27;100.00
53719;BME280;39616;48.872;9.390;2023-04-02T04:06:15;97704.44;;;7.30;100.00
53719;BME280;39616;48.872;9.390;2023-04-02T04:08:53;97705.81;;;7.28;100.00
53719;BME280;39616;48.872;9.390;2023-04-02T04:11:32;97711.72;;;7.30;100.00
53719;BME280;39616;48.872;9.390;2023-04-02T04:14:17;97717.13;;;7.30;100.00
53719;BME280;39616;48.872;9.390;2023-04-02T04:16:53;97714.69;;;7.28;100.00
53719;BME280;39616;48.872;9.390;2023-04-02T04:19:32;97721.72;;;7.29;100.00
53719;BME280;39616;48.872;9.390;2023-04-02T04:22:14;97724.91;;;7.31;100.00
53719;BME280;39616;48.872;9.390;2023-04-02T04:24:47;97723.03;;;7.32;100.00
53719;BME280;39616;48.872;9.390;2023-04-02T04:30:13;97728.13;;;7.33;100.00
53719;BME280;39616;48.872;9.390;2023-04-02T04:32:47;97735.41;;;7.33;100.00
53719;BME280;39616;48.872;9.390;2023-04-02T04:35:26;97729.72;;;7.34;100.00
53719;BME280;39616;48.872;9.390;2023-04-02T04:38:06;97738.09;;;7.33;100.00
53719;BME280;39616;48.872;9.390;2023-04-02T04:40:44;97735.94;;;7.35;100.00
53719;BME280;39616;48.872;9.390;2023-04-02T04:43:36;97757.22;;;7.36;100.00
53719;BME280;39616;48.872;9.390;2023-04-02T04:46:10;97754.50;;;7.36;100.00
53719;BME280;39616;48.872;9.390;2023-04-02T04:48:50;97761.00;;;7.35;100.00
53719;BME280;39616;48.872;9.390;2023-04-02T04:51:45;97759.91;;;7.36;100.00
53719;BME280;39616;48.872;9.390;2023-04-02T04:54:17;97770.41;;;7.38;100.00
53719;BME280;39616;48.872;9.390;2023-04-02T04:56:54;97767.72;;;7.38;100.00
53719;BME280;39616;48.872;9.390;2023-04-02T04:59:32;97772.03;;;7.39;100.00
53719;BME280;39616;48.872;9.390;2023-04-02T05:02:21;97776.84;;;7.42;100.00
53719;BME280;39616;48.872;9.390;2023-04-02T05:04:53;97774.72;;;7.39;100.00
53719;BME280;39616;48.872;9.390;2023-04-02T05:07:29;97775.50;;;7.39;100.00
53719;BME280;39616;48.872;9.390;2023-04-02T05:10:06;97783.59;;;7.39;100.00
53719;BME280;39616;48.872;9.390;2023-04-02T05:12:45;97786.03;;;7.41;100.00
53719;BME280;39616;48.872;9.390;2023-04-02T05:15:40;97786.03;;;7.41;100.00
53719;BME280;39616;48.872;9.390;2023-04-02T05:18:30;97780.34;;;7.42;100.00
53719;BME280;39616;48.872;9.390;2023-04-02T05:21:10;97790.31;;;7.42;100.00
53719;BME280;39616;48.872;9.390;2023-04-02T05:23:44;97791.66;;;7.44;100.00
53719;BME280;39616;48.872;9.390;2023-04-02T05:26:24;97798.13;;;7.43;100.00
53719;BME280;39616;48.872;9.390;2023-04-02T05:29:18;97800.25;;;7.46;100.00
53719;BME280;39616;48.872;9.390;2023-04-02T05:31:59;97801.88;;;7.47;100.00
53719;BME280;39616;48.872;9.390;2023-04-02T05:34:34;97807.53;;;7.46;100.00
53719;BME280;39616;48.872;9.390;2023-04-02T05:37:18;97807.53;;;7.46;100.00
53719;BME280;39616;48.872;9.390;2023-04-02T05:39:55;97813.47;;;7.48;100.00
53719;BME280;39616;48.872;9.390;2023-04-02T05:42:26;97814.75;;;7.50;100.00
53719;BME280;39616;48.872;9.390;2023-04-02T05:45:06;97813.16;;;7.49;100.00
53719;BME280;39616;48.872;9.390;2023-04-02T05:47:38;97822.25;;;7.59;100.00
53719;BME280;39616;48.872;9.390;2023-04-02T05:50:20;97830.34;;;7.59;100.00
53719;BME280;39616;48.872;9.390;2023-04-02T05:56:12;97826.75;;;7.63;100.00
53719;BME280;39616;48.872;9.390;2023-04-02T05:58:55;97832.66;;;7.65;100.00
53719;BME280;39616;48.872;9.390;2023-04-02T06:07:16;97848.22;;;7.73;100.00
53719;BME280;39616;48.872;9.390;2023-04-02T06:15:13;97857.34;;;7.78;100.00
53719;BME280;39616;48.872;9.390;2023-04-02T06:17:46;97857.28;;;7.83;100.00
53719;BME280;39616;48.872;9.390;2023-04-02T06:20:19;97855.59;;;7.87;100.00
53719;BME280;39616;48.872;9.390;2023-04-02T06:23:02;97859.09;;;7.87;100.00
53719;BME280;39616;48.872;9.390;2023-04-02T06:25:39;97866.94;;;7.89;100.00
53719;BME280;39616;48.872;9.390;2023-04-02T06:28:14;97873.94;;;7.90;100.00
53719;BME280;39616;48.872;9.390;2023-04-02T06:30:46;97876.94;;;7.88;100.00
53719;BME280;39616;48.872;9.390;2023-04-02T06:33:18;97882.38;;;7.83;100.00
53719;BME280;39616;48.872;9.390;2023-04-02T06:35:49;97884.00;;;7.84;100.00
53719;BME280;39616;48.872;9.390;2023-04-02T06:38:24;97886.16;;;7.82;100.00
53719;BME280;39616;48.872;9.390;2023-04-02T06:40:58;97883.25;;;7.79;100.00
53719;BME280;39616;48.872;9.390;2023-04-02T06:43:45;97890.53;;;7.78;100.00
53719;BME280;39616;48.872;9.390;2023-04-02T06:46:25;97893.75;;;7.80;100.00
53719;BME280;39616;48.872;9.390;2023-04-02T06:51:53;97906.44;;;7.80;100.00
53719;BME280;39616;48.872;9.390;2023-04-02T06:54:24;97909.66;;;7.82;100.00
53719;BME280;39616;48.872;9.390;2023-04-02T06:56:55;97913.31;;;7.91;100.00
53719;BME280;39616;48.872;9.390;2023-04-02T06:59:25;97925.09;;;8.00;100.00
53719;BME280;39616;48.872;9.390;2023-04-02T07:02:36;97917.72;;;8.06;100.00
53719;BME280;39616;48.872;9.390;2023-04-02T07:05:08;97928.19;;;8.12;100.00
53719;BME280;39616;48.872;9.390;2023-04-02T07:07:39;97930.53;;;8.19;100.00
53719;BME280;39616;48.872;9.390;2023-04-02T07:10:10;97932.09;;;8.25;100.00
53719;BME280;39616;48.872;9.390;2023-04-02T07:12:41;97931.56;;;8.23;100.00
53719;BME280;39616;48.872;9.390;2023-04-02T07:15:18;97939.31;;;8.30;100.00
53719;BME280;39616;48.872;9.390;2023-04-02T07:17:48;97935.44;;;8.36;98.65
53719;BME280;39616;48.872;9.390;2023-04-02T07:20:29;97950.28;;;8.38;97.38
53719;BME280;39616;48.872;9.390;2023-04-02T07:23:00;97950.28;;;8.38;100.00
53719;BME280;39616;48.872;9.390;2023-04-02T07:25:30;97950.50;;;8.42;100.00
53719;BME280;39616;48.872;9.390;2023-04-02T07:28:00;97951.25;;;8.48;100.00
53719;BME280;39616;48.872;9.390;2023-04-02T07:30:30;97956.09;;;8.51;99.80
53719;BME280;39616;48.872;9.390;2023-04-02T07:33:01;97961.97;;;8.53;97.26
53719;BME280;39616;48.872;9.390;2023-04-02T07:35:31;97971.41;;;8.55;96.30
53719;BME280;39616;48.872;9.390;2023-04-02T07:38:01;97966.00;;;8.55;96.70
53719;BME280;39616;48.872;9.390;2023-04-02T07:40:31;97974.63;;;8.57;97.51
53719;BME280;39616;48.872;9.390;2023-04-02T07:43:03;97976.03;;;8.55;99.68
53719;BME280;39616;48.872;9.390;2023-04-02T07:45:34;97981.69;;;8.53;99.60
53719;BME280;39616;48.872;9.390;2023-04-02T07:48:09;97983.91;;;8.51;97.94
53719;BME280;39616;48.872;9.390;2023-04-02T07:50:40;97986.88;;;8.50;97.60
53719;BME280;39616;48.872;9.390;2023-04-02T07:53:25;97988.22;;;8.52;97.51
53719;BME280;39616;48.872;9.390;2023-04-02T07:56:00;97992.72;;;8.57;98.21
53719;BME280;39616;48.872;9.390;2023-04-02T07:58:35;98000.25;;;8.60;97.40
53719;BME280;39616;48.872;9.390;2023-04-02T08:01:14;97998.38;;;8.60;96.97
53719;BME280;39616;48.872;9.390;2023-04-02T08:03:46;98006.47;;;8.60;97.41
53719;BME280;39616;48.872;9.390;2023-04-02T08:06:16;98009.47;;;8.59;96.10
53719;BME280;39616;48.872;9.390;2023-04-02T08:08:47;98015.69;;;8.59;95.55
53719;BME280;39616;48.872;9.390;2023-04-02T08:11:18;98014.00;;;8.63;96.98
53719;BME280;39616;48.872;9.390;2023-04-02T08:13:49;98017.16;;;8.70;96.86
53719;BME280;39616;48.872;9.390;2023-04-02T08:16:19;98020.44;;;8.67;97.59
53719;BME280;39616;48.872;9.390;2023-04-02T08:18:50;98024.91;;;8.58;94.29
53719;BME280;39616;48.872;9.390;2023-04-02T08:21:20;98029.34;;;8.68;98.62
53719;BME280;39616;48.872;9.390;2023-04-02T08:23:51;98029.34;;;8.68;95.30
53719;BME280;39616;48.872;9.390;2023-04-02T08:26:21;98035.41;;;8.60;98.45
53719;BME280;39616;48.872;9.390;2023-04-02T08:28:51;98033.44;;;8.65;97.11
53719;BME280;39616;48.872;9.390;2023-04-02T08:31:22;98037.75;;;8.85;97.89
53719;BME280;39616;48.872;9.390;2023-04-02T08:33:52;98043.47;;;8.84;98.28
53719;BME280;39616;48.872;9.390;2023-04-02T08:36:28;98048.44;;;9.14;96.27
53719;BME280;39616;48.872;9.390;2023-04-02T08:39:00;98047.91;;;9.12;94.31
53719;BME280;39616;48.872;9.390;2023-04-02T08:41:37;98055.06;;;9.41;93.38
53719;BME280;39616;48.872;9.390;2023-04-02T08:46:58;98054.81;;;9.56;90.64
53719;BME280;39616;48.872;9.390;2023-04-02T08:50:00;98059.69;;;9.73;91.08
53719;BME280;39616;48.872;9.390;2023-04-02T08:52:36;98066.78;;;9.69;87.74
53719;BME280;39616;48.872;9.390;2023-04-02T08:55:37;98069.28;;;9.65;88.48
53719;BME280;39616;48.872;9.390;2023-04-02T08:58:40;98068.63;;;9.87;89.40
53719;BME280;39616;48.872;9.390;2023-04-02T09:01:45;98077.81;;;9.73;88.38
53719;BME280;39616;48.872;9.390;2023-04-02T09:04:20;98079.69;;;9.91;87.73
53719;BME280;39616;48.872;9.390;2023-04-02T09:06:54;98084.56;;;9.89;86.53
53719;BME280;39616;48.872;9.390;2023-04-02T09:09:25;98086.31;;;9.99;85.55
53719;BME280;39616;48.872;9.390;2023-04-02T09:11:59;98088.53;;;10.10;85.44
53719;BME280;39616;48.872;9.390;2023-04-02T09:14:45;98095.13;;;9.90;85.51
53719;BME280;39616;48.872;9.390;2023-04-02T09:17:21;98096.91;;;9.81;85.16
53719;BME280;39616;48.872;9.390;2023-04-02T09:20:15;98098.72;;;9.34;87.55
53719;BME280;39616;48.872;9.390;2023-04-02T09:22:48;98106.22;;;9.56;86.21
53719;BME280;39616;48.872;9.390;2023-04-02T09:25:26;98112.25;;;9.34;88.01
53719;BME280;39616;48.872;9.390;2023-04-02T09:28:03;98110.75;;;9.61;87.17
53719;BME280;39616;48.872;9.390;2023-04-02T09:33:45;98125.13;;;9.61;87.48
53719;BME280;39616;48.872;9.390;2023-04-02T09:36:37;98119.84;;;9.70;86.13
53719;BME280;39616;48.872;9.390;2023-04-02T09:39:23;98120.53;;;9.95;85.72
53719;BME280;39616;48.872;9.390;2023-04-02T09:41:55;98121.75;;;10.16;84.99
53719;BME280;39616;48.872;9.390;2023-04-02T09:44:26;98132.28;;;10.04;84.30
53719;BME280;39616;48.872;9.390;2023-04-02T09:47:01;98138.78;;;10.35;82.52
53719;BME280;39616;48.872;9.390;2023-04-02T09:49:35;98140.22;;;10.47;82.86
53719;BME280;39616;48.872;9.390;2023-04-02T09:52:41;98137.50;;;10.74;81.31
53719;BME280;39616;48.872;9.390;2023-04-02T09:57:46;98133.19;;;11.37;80.96
53719;BME280;39616;48.872;9.390;2023-04-02T10:00:22;98142.81;;;11.43;81.93
53719;BME280;39616;48.872;9.390;2023-04-02T10:03:05;98144.59;;;11.11;79.49
53719;BME280;39616;48.872;9.390;2023-04-02T10:05:36;98157.88;;;11.13;78.38
53719;BME280;39616;48.872;9.390;2023-04-02T10:08:17;98153.56;;;11.12;80.91
53719;BME280;39616;48.872;9.390;2023-04-02T10:10:50;98156.09;;;11.08;79.82
53719;BME280;39616;48.872;9.390;2023-04-02T10:13:32;98150.13;;;11.56;79.70
53719;BME280;39616;48.872;9.390;2023-04-02T10:16:21;98150.25;;;11.74;77.34
53719;BME280;39616;48.872;9.390;2023-04-02T10:18:59;98155.38;;;11.53;76.18
53719;BME280;39616;48.872;9.390;2023-04-02T10:21:35;98155.75;;;11.60;76.63
53719;BME280;39616;48.872;9.390;2023-04-02T10:24:13;98154.03;;;12.00;77.74
53719;BME280;39616;48.872;9.390;2023-04-02T10:29:52;98168.09;;;11.66;73.91
53719;BME280;39616;48.872;9.390;2023-04-02T10:32:47;98153.75;;;11.88;74.30
53719;BME280;39616;48.872;9.390;2023-04-02T10:35:38;98164.13;;;12.08;74.79
53719;BME280;39616;48.872;9.390;2023-04-02T10:40:59;98174.06;;;12.13;75.61
53719;BME280;39616;48.872;9.390;2023-04-02T10:46:50;98177.28;;;11.56;75.24
53719;BME280;39616;48.872;9.390;2023-04-02T10:49:41;98188.72;;;11.31;77.38
53719;BME280;39616;48.872;9.390;2023-04-02T10:52:20;98190.03;;;10.92;78.91
53719;BME280;39616;48.872;9.390;2023-04-02T10:55:23;98191.84;;;11.24;80.15
53719;BME280;39616;48.872;9.390;2023-04-02T10:57:56;98190.25;;;11.09;79.16
53719;BME280;39616;48.872;9.390;2023-04-02T11:00:34;98197.16;;;11.16;79.35
53719;BME280;39616;48.872;9.390;2023-04-02T11:03:12;98198.47;;;11.18;78.99
53719;BME280;39616;48.872;9.390;2023-04-02T11:05:47;98205.94;;;11.12;79.42
53719;BME280;39616;48.872;9.390;2023-04-02T11:08:25;98207.00;;;11.25;78.62
53719;BME280;39616;48.872;9.390;2023-04-02T11:11:04;98213.75;;;11.28;77.06
53719;BME280;39616;48.872;9.390;2023-04-02T11:13:57;98210.63;;;11.34;77.70
53719;BME280;39616;48.872;9.390;2023-04-02T11:16:30;98206.72;;;11.13;78.09
53719;BME280;39616;48.872;9.390;2023-04-02T11:22:21;98215.25;;;10.93;77.75
53719;BME280;39616;48.872;9.390;2023-04-02T11:24:52;98214.19;;;10.94;76.92
53719;BME280;39616;48.872;9.390;2023-04-02T11:27:33;98222.00;;;10.95;77.70
53719;BME280;39616;48.872;9.390;2023-04-02T11:30:18;98222.41;;;11.16;77.39
53719;BME280;39616;48.872;9.390;2023-04-02T11:32:51;98224.59;;;11.00;76.96
53719;BME280;39616;48.872;9.390;2023-04-02T11:38:01;98230.03;;;11.28;75.80
53719;BME280;39616;48.872;9.390;2023-04-02T11:40:52;98230.53;;;11.30;76.09
53719;BME280;39616;48.872;9.390;2023-04-02T11:48:45;98240.78;;;11.33;75.54
53719;BME280;39616;48.872;9.390;2023-04-02T11:53:53;98233.00;;;11.54;75.27
53719;BME280;39616;48.872;9.390;2023-04-02T12:09:55;98248.91;;;11.60;75.21
53719;BME280;39616;48.872;9.390;2023-04-02T12:12:39;98243.41;;;11.88;75.43
53719;BME280;39616;48.872;9.390;2023-04-02T12:15:33;98254.25;;;12.02;74.20
53719;BME280;39616;48.872;9.390;2023-04-02T12:18:22;98244.50;;;12.23;72.95
53719;BME280;39616;48.872;9.390;2023-04-02T12:20:54;98249.16;;;11.87;72.35
53719;BME280;39616;48.872;9.390;2023-04-02T12:23:27;98254.69;;;12.18;72.80
53719;BME280;39616;48.872;9.390;2023-04-02T12:26:03;98256.97;;;12.24;73.51
53719;BME280;39616;48.872;9.390;2023-04-02T12:28:35;98259.44;;;11.90;72.84
53719;BME280;39616;48.872;9.390;2023-04-02T12:33:38;98276.06;;;11.19;75.93
53719;BME280;39616;48.872;9.390;2023-04-02T12:38:54;98272.16;;;11.25;75.27
53719;BME280;39616;48.872;9.390;2023-04-02T12:41:30;98281.69;;;10.95;80.04
53719;BME280;39616;48.872;9.390;2023-04-02T12:44:02;98279.31;;;10.75;83.92
53719;BME280;39616;48.872;9.390;2023-04-02T12:46:37;98282.38;;;11.01;83.16
53719;BME280;39616;48.872;9.390;2023-04-02T12:49:36;98291.06;;;11.17;83.14
53719;BME280;39616;48.872;9.390;2023-04-02T12:52:13;98290.56;;;11.28;83.02
53719;BME280;39616;48.872;9.390;2023-04-02T12:54:47;98294.66;;;11.40;83.11
53719;BME280;39616;48.872;9.390;2023-04-02T12:57:38;98298.47;;;10.97;84.78
53719;BME280;39616;48.872;9.390;2023-04-02T13:03:01;98301.22;;;10.78;85.73
53719;BME280;39616;48.872;9.390;2023-04-02T13:05:45;98298.72;;;10.68;86.01
53719;BME280;39616;48.872;9.390;2023-04-02T13:08:20;98307.28;;;10.43;88.93
53719;BME280;39616;48.872;9.390;2023-04-02T13:10:54;98304.91;;;10.55;87.74
53719;BME280;39616;48.872;9.390;2023-04-02T13:13:28;98313.72;;;10.47;87.89
53719;BME280;39616;48.872;9.390;2023-04-02T13:16:21;98315.69;;;10.41;90.49
53719;BME280;39616;48.872;9.390;2023-04-02T13:19:09;98321.47;;;10.15;93.95
53719;BME280;39616;48.872;9.390;2023-04-02T13:21:40;98322.44;;;10.06;92.56
53719;BME280;39616;48.872;9.390;2023-04-02T13:24:31;98325.72;;;10.03;93.24
53719;BME280;39616;48.872;9.390;2023-04-02T13:27:02;98326.38;;;9.95;95.73
53719;BME280;39616;48.872;9.390;2023-04-02T13:29:34;98333.47;;;9.90;96.49
53719;BME280;39616;48.872;9.390;2023-04-02T13:32:09;98347.56;;;9.68;96.28
53719;BME280;39616;48.872;9.390;2023-04-02T13:34:41;98343.84;;;9.40;99.35
53719;BME280;39616;48.872;9.390;2023-04-02T13:37:11;98346.78;;;9.44;100.00
53719;BME280;39616;48.872;9.390;2023-04-02T13:39:42;98344.63;;;9.65;100.00
53719;BME280;39616;48.872;9.390;2023-04-02T13:42:12;98347.72;;;9.77;99.45
53719;BME280;39616;48.872;9.390;2023-04-02T13:44:42;98351.88;;;9.46;99.82
53719;BME280;39616;48.872;9.390;2023-04-02T13:47:13;98350.81;;;9.47;100.00
53719;BME280;39616;48.872;9.390;2023-04-02T13:49:43;98350.59;;;9.43;100.00
53719;BME280;39616;48.872;9.390;2023-04-02T13:52:14;98353.97;;;9.30;100.00
53719;BME280;39616;48.872;9.390;2023-04-02T13:54:51;98355.75;;;9.39;100.00
53719;BME280;39616;48.872;9.390;2023-04-02T13:57:23;98355.06;;;9.29;100.00
53719;BME280;39616;48.872;9.390;2023-04-02T13:59:53;98367.19;;;9.31;100.00
53719;BME280;39616;48.872;9.390;2023-04-02T14:02:24;98364.31;;;9.23;100.00
53719;BME280;39616;48.872;9.390;2023-04-02T14:22:14;98394.63;;;8.95;100.00
53719;BME280;39616;48.872;9.390;2023-04-02T14:25:10;98388.66;;;8.93;100.00
53719;BME280;39616;48.872;9.390;2023-04-02T14:31:04;98407.69;;;8.83;100.00
53719;BME280;39616;48.872;9.390;2023-04-02T14:36:22;98419.56;;;8.48;100.00
53719;BME280;39616;48.872;9.390;2023-04-02T14:39:15;98413.59;;;8.51;100.00
53719;BME280;39616;48.872;9.390;2023-04-02T14:42:15;98416.38;;;8.36;100.00
53719;BME280;39616;48.872;9.390;2023-04-02T14:50:11;98431.38;;;8.08;100.00
53719;BME280;39616;48.872;9.390;2023-04-02T14:52:44;98438.06;;;8.20;100.00
53719;BME280;39616;48.872;9.390;2023-04-02T14:55:25;98439.19;;;8.09;100.00
53719;BME280;39616;48.872;9.390;2023-04-02T14:58:01;98440.53;;;8.12;100.00
53719;BME280;39616;48.872;9.390;2023-04-02T15:00:37;98446.75;;;8.17;100.00
53719;BME280;39616;48.872;9.390;2023-04-02T15:05:43;98433.69;;;8.24;100.00
53719;BME280;39616;48.872;9.390;2023-04-02T15:08:19;98444.53;;;8.19;100.00
53719;BME280;39616;48.872;9.390;2023-04-02T15:13:43;98446.84;;;8.46;100.00
53719;BME280;39616;48.872;9.390;2023-04-02T15:16:19;98451.25;;;8.32;100.00
53719;BME280;39616;48.872;9.390;2023-04-02T15:18:55;98452.84;;;8.43;100.00
53719;BME280;39616;48.872;9.390;2023-04-02T15:21:36;98449.25;;;8.53;100.00
53719;BME280;39616;48.872;9.390;2023-04-02T15:30:29;98475.06;;;8.25;95.93
53719;BME280;39616;48.872;9.390;2023-04-02T15:38:24;98485.34;;;8.18;92.52
53719;BME280;39616;48.872;9.390;2023-04-02T15:43:46;98487.59;;;7.90;92.55
53719;BME280;39616;48.872;9.390;2023-04-02T15:51:54;98501.88;;;8.01;93.92
53719;BME280;39616;48.872;9.390;2023-04-02T15:54:36;98500.00;;;7.91;93.02
53719;BME280;39616;48.872;9.390;2023-04-02T15:57:33;98504.16;;;7.53;93.52
53719;BME280;39616;48.872;9.390;2023-04-02T16:00:18;98508.72;;;7.58;95.37
53719;BME280;39616;48.872;9.390;2023-04-02T16:05:41;98518.97;;;7.61;93.50
53719;BME280;39616;48.872;9.390;2023-04-02T16:08:27;98525.97;;;7.72;92.86
53719;BME280;39616;48.872;9.390;2023-04-02T16:11:00;98528.44;;;7.53;92.02
53719;BME280;39616;48.872;9.390;2023-04-02T16:13:35;98534.63;;;7.64;92.16
53719;BME280;39616;48.872;9.390;2023-04-02T16:21:23;98554.06;;;7.45;90.73
53719;BME280;39616;48.872;9.390;2023-04-02T16:23:56;98556.78;;;7.40;89.31
53719;BME280;39616;48.872;9.390;2023-04-02T16:26:35;98554.34;;;7.29;89.63
53719;BME280;39616;48.872;9.390;2023-04-02T16:35:01;98567.84;;;7.34;90.07
53719;BME280;39616;48.872;9.390;2023-04-02T16:37:39;98572.69;;;7.37;89.24
53719;BME280;39616;48.872;9.390;2023-04-02T16:43:35;98571.59;;;7.12;90.35
53719;BME280;39616;48.872;9.390;2023-04-02T16:46:50;98583.19;;;7.08;91.28
53719;BME280;39616;48.872;9.390;2023-04-02T16:49:35;98589.09;;;7.05;91.58
53719;BME280;39616;48.872;9.390;2023-04-02T17:00:45;98614.13;;;6.85;91.17
53719;BME280;39616;48.872;9.390;2023-04-02T17:06:41;98630.16;;;6.54;89.76
53719;BME280;39616;48.872;9.390;2023-04-02T17:09:16;98628.28;;;6.49;90.84
53719;BME280;39616;48.872;9.390;2023-04-02T17:11:50;98637.38;;;6.43;91.92